sensor_id;sensor_type;location;lat;lon;timestamp;P1;durP1;ratioP1;P2;durP2;ratioP2
10381;SDS011;11635;53.636;10.120;2022-08-05T00:01:46;17.70;;;9.05;;
10381;SDS011;11635;53.636;10.120;2022-08-05T00:04:13;13.60;;;8.93;;
10381;SDS011;11635;53.636;10.120;2022-08-05T00:06:39;14.25;;;8.55;;
10381;SDS011;11635;53.636;10.120;2022-08-05T00:09:06;17.63;;;9.30;;
10381;SDS011;11635;53.636;10.120;2022-08-05T00:11:32;18.17;;;9.65;;
10381;SDS011;11635;53.636;10.120;2022-08-05T00:13:58;18.15;;;9.15;;
10381;SDS011;11635;53.636;10.120;2022-08-05T00:16:25;12.95;;;7.65;;
10381;SDS011;11635;53.636;10.120;2022-08-05T00:18:52;17.13;;;8.15;;
10381;SDS011;11635;53.636;10.120;2022-08-05T00:21:19;13.05;;;7.90;;
10381;SDS011;11635;53.636;10.120;2022-08-05T00:23:46;12.32;;;8.10;;
10381;SDS011;11635;53.636;10.120;2022-08-05T00:26:13;11.52;;;7.57;;
10381;SDS011;11635;53.636;10.120;2022-08-05T00:28:40;11.48;;;7.05;;
10381;SDS011;11635;53.636;10.120;2022-08-05T00:31:06;9.45;;;6.53;;
10381;SDS011;11635;53.636;10.120;2022-08-05T00:33:32;8.70;;;7.60;;
10381;SDS011;11635;53.636;10.120;2022-08-05T00:36:00;11.95;;;6.82;;
10381;SDS011;11635;53.636;10.120;2022-08-05T00:38:27;8.85;;;6.35;;
10381;SDS011;11635;53.636;10.120;2022-08-05T00:40:54;8.50;;;6.25;;
10381;SDS011;11635;53.636;10.120;2022-08-05T00:43:21;11.20;;;5.80;;
10381;SDS011;11635;53.636;10.120;2022-08-05T00:45:47;10.63;;;5.60;;
10381;SDS011;11635;53.636;10.120;2022-08-05T00:48:14;8.73;;;5.45;;
10381;SDS011;11635;53.636;10.120;2022-08-05T00:50:42;10.93;;;4.95;;
10381;SDS011;11635;53.636;10.120;2022-08-05T00:53:10;9.30;;;5.00;;
10381;SDS011;11635;53.636;10.120;2022-08-05T00:55:36;6.45;;;4.43;;
10381;SDS011;11635;53.636;10.120;2022-08-05T00:58:03;9.00;;;4.35;;
10381;SDS011;11635;53.636;10.120;2022-08-05T01:00:29;9.93;;;4.88;;
10381;SDS011;11635;53.636;10.120;2022-08-05T01:02:56;5.18;;;3.88;;
10381;SDS011;11635;53.636;10.120;2022-08-05T01:05:23;5.75;;;3.63;;
10381;SDS011;11635;53.636;10.120;2022-08-05T01:07:49;5.80;;;3.50;;
10381;SDS011;11635;53.636;10.120;2022-08-05T01:10:19;5.35;;;3.15;;
10381;SDS011;11635;53.636;10.120;2022-08-05T01:12:49;5.68;;;3.50;;
10381;SDS011;11635;53.636;10.120;2022-08-05T01:15:19;5.05;;;3.30;;
10381;SDS011;11635;53.636;10.120;2022-08-05T01:17:48;5.45;;;2.78;;
10381;SDS011;11635;53.636;10.120;2022-08-05T01:20:18;5.07;;;2.80;;
10381;SDS011;11635;53.636;10.120;2022-08-05T01:22:56;6.00;;;2.92;;
10381;SDS011;11635;53.636;10.120;2022-08-05T01:28:23;3.35;;;2.65;;
10381;SDS011;11635;53.636;10.120;2022-08-05T01:30:52;2.90;;;2.28;;
10381;SDS011;11635;53.636;10.120;2022-08-05T01:33:20;5.78;;;2.70;;
10381;SDS011;11635;53.636;10.120;2022-08-05T01:35:48;3.83;;;2.42;;
10381;SDS011;11635;53.636;10.120;2022-08-05T01:38:14;3.65;;;2.40;;
10381;SDS011;11635;53.636;10.120;2022-08-05T01:40:42;4.35;;;2.22;;
10381;SDS011;11635;53.636;10.120;2022-08-05T01:43:09;3.83;;;2.38;;
10381;SDS011;11635;53.636;10.120;2022-08-05T01:45:37;3.72;;;2.10;;
10381;SDS011;11635;53.636;10.120;2022-08-05T01:48:04;3.05;;;2.50;;
10381;SDS011;11635;53.636;10.120;2022-08-05T01:50:34;3.80;;;2.40;;
10381;SDS011;11635;53.636;10.120;2022-08-05T01:53:02;5.70;;;2.20;;
10381;SDS011;11635;53.636;10.120;2022-08-05T01:55:30;2.83;;;2.10;;
10381;SDS011;11635;53.636;10.120;2022-08-05T01:57:57;3.92;;;2.30;;
10381;SDS011;11635;53.636;10.120;2022-08-05T02:00:25;4.05;;;2.30;;
10381;SDS011;11635;53.636;10.120;2022-08-05T02:02:54;3.38;;;2.45;;
10381;SDS011;11635;53.636;10.120;2022-08-05T02:05:22;3.17;;;2.10;;
10381;SDS011;11635;53.636;10.120;2022-08-05T02:07:48;3.65;;;2.53;;
10381;SDS011;11635;53.636;10.120;2022-08-05T02:10:15;2.58;;;2.35;;
10381;SDS011;11635;53.636;10.120;2022-08-05T02:12:42;5.30;;;2.75;;
10381;SDS011;11635;53.636;10.120;2022-08-05T02:15:11;3.67;;;2.35;;
10381;SDS011;11635;53.636;10.120;2022-08-05T02:17:40;4.47;;;2.20;;
10381;SDS011;11635;53.636;10.120;2022-08-05T02:20:10;3.40;;;2.28;;
10381;SDS011;11635;53.636;10.120;2022-08-05T02:22:39;3.10;;;2.35;;
10381;SDS011;11635;53.636;10.120;2022-08-05T02:25:07;5.00;;;2.10;;
10381;SDS011;11635;53.636;10.120;2022-08-05T02:27:35;4.70;;;2.70;;
10381;SDS011;11635;53.636;10.120;2022-08-05T02:30:03;7.35;;;2.45;;
10381;SDS011;11635;53.636;10.120;2022-08-05T02:32:30;3.30;;;2.55;;
10381;SDS011;11635;53.636;10.120;2022-08-05T02:34:57;3.08;;;2.08;;
10381;SDS011;11635;53.636;10.120;2022-08-05T02:37:26;3.22;;;2.10;;
10381;SDS011;11635;53.636;10.120;2022-08-05T02:39:52;4.07;;;2.45;;
10381;SDS011;11635;53.636;10.120;2022-08-05T02:42:19;4.00;;;2.72;;
10381;SDS011;11635;53.636;10.120;2022-08-05T02:44:46;7.88;;;2.92;;
10381;SDS011;11635;53.636;10.120;2022-08-05T02:47:13;7.53;;;2.60;;
10381;SDS011;11635;53.636;10.120;2022-08-05T02:49:40;5.20;;;2.75;;
10381;SDS011;11635;53.636;10.120;2022-08-05T02:52:09;3.47;;;2.30;;
10381;SDS011;11635;53.636;10.120;2022-08-05T02:54:37;4.25;;;2.60;;
10381;SDS011;11635;53.636;10.120;2022-08-05T02:57:06;3.40;;;2.67;;
10381;SDS011;11635;53.636;10.120;2022-08-05T02:59:33;4.63;;;2.50;;
10381;SDS011;11635;53.636;10.120;2022-08-05T03:01:59;5.60;;;2.85;;
10381;SDS011;11635;53.636;10.120;2022-08-05T03:04:26;4.68;;;3.00;;
10381;SDS011;11635;53.636;10.120;2022-08-05T03:06:53;4.97;;;3.00;;
10381;SDS011;11635;53.636;10.120;2022-08-05T03:09:20;5.15;;;2.80;;
10381;SDS011;11635;53.636;10.120;2022-08-05T03:11:48;4.15;;;2.90;;
10381;SDS011;11635;53.636;10.120;2022-08-05T03:14:15;6.40;;;3.03;;
10381;SDS011;11635;53.636;10.120;2022-08-05T03:16:41;4.78;;;2.78;;
10381;SDS011;11635;53.636;10.120;2022-08-05T03:19:08;4.63;;;2.85;;
10381;SDS011;11635;53.636;10.120;2022-08-05T03:21:34;6.38;;;3.50;;
10381;SDS011;11635;53.636;10.120;2022-08-05T03:24:00;6.47;;;3.30;;
10381;SDS011;11635;53.636;10.120;2022-08-05T03:26:27;3.55;;;2.72;;
10381;SDS011;11635;53.636;10.120;2022-08-05T03:28:55;3.88;;;3.10;;
10381;SDS011;11635;53.636;10.120;2022-08-05T03:31:21;7.13;;;3.35;;
10381;SDS011;11635;53.636;10.120;2022-08-05T03:33:48;4.03;;;3.25;;
10381;SDS011;11635;53.636;10.120;2022-08-05T03:36:15;5.32;;;3.40;;
10381;SDS011;11635;53.636;10.120;2022-08-05T03:38:41;7.13;;;3.53;;
10381;SDS011;11635;53.636;10.120;2022-08-05T03:41:07;4.47;;;3.40;;
10381;SDS011;11635;53.636;10.120;2022-08-05T03:43:34;4.78;;;3.08;;
10381;SDS011;11635;53.636;10.120;2022-08-05T03:46:02;4.20;;;3.20;;
10381;SDS011;11635;53.636;10.120;2022-08-05T03:48:29;5.75;;;3.20;;
10381;SDS011;11635;53.636;10.120;2022-08-05T03:50:57;8.73;;;4.03;;
10381;SDS011;11635;53.636;10.120;2022-08-05T03:53:27;6.18;;;3.35;;
10381;SDS011;11635;53.636;10.120;2022-08-05T03:55:56;6.68;;;3.70;;
10381;SDS011;11635;53.636;10.120;2022-08-05T03:58:23;4.53;;;2.90;;
10381;SDS011;11635;53.636;10.120;2022-08-05T04:00:53;5.72;;;3.30;;
10381;SDS011;11635;53.636;10.120;2022-08-05T04:03:22;3.97;;;3.50;;
10381;SDS011;11635;53.636;10.120;2022-08-05T04:05:49;4.07;;;3.47;;
10381;SDS011;11635;53.636;10.120;2022-08-05T04:08:16;5.07;;;3.35;;
10381;SDS011;11635;53.636;10.120;2022-08-05T04:10:42;5.03;;;3.83;;
10381;SDS011;11635;53.636;10.120;2022-08-05T04:13:10;6.20;;;3.50;;
10381;SDS011;11635;53.636;10.120;2022-08-05T04:15:36;3.95;;;3.05;;
10381;SDS011;11635;53.636;10.120;2022-08-05T04:18:03;5.30;;;3.60;;
10381;SDS011;11635;53.636;10.120;2022-08-05T04:20:31;6.57;;;3.47;;
10381;SDS011;11635;53.636;10.120;2022-08-05T04:22:58;4.65;;;3.22;;
10381;SDS011;11635;53.636;10.120;2022-08-05T04:25:24;4.47;;;3.28;;
10381;SDS011;11635;53.636;10.120;2022-08-05T04:27:50;7.78;;;3.70;;
10381;SDS011;11635;53.636;10.120;2022-08-05T04:30:17;5.25;;;3.90;;
10381;SDS011;11635;53.636;10.120;2022-08-05T04:32:43;9.10;;;3.83;;
10381;SDS011;11635;53.636;10.120;2022-08-05T04:35:09;4.38;;;3.25;;
10381;SDS011;11635;53.636;10.120;2022-08-05T04:37:37;5.43;;;3.70;;
10381;SDS011;11635;53.636;10.120;2022-08-05T04:40:04;6.07;;;3.88;;
10381;SDS011;11635;53.636;10.120;2022-08-05T04:42:31;6.63;;;3.50;;
10381;SDS011;11635;53.636;10.120;2022-08-05T04:44:57;5.88;;;3.40;;
10381;SDS011;11635;53.636;10.120;2022-08-05T04:47:23;5.38;;;3.35;;
10381;SDS011;11635;53.636;10.120;2022-08-05T04:49:50;4.00;;;3.55;;
10381;SDS011;11635;53.636;10.120;2022-08-05T04:52:16;6.53;;;4.30;;
10381;SDS011;11635;53.636;10.120;2022-08-05T04:54:44;5.78;;;3.95;;
10381;SDS011;11635;53.636;10.120;2022-08-05T04:57:10;6.13;;;4.20;;
10381;SDS011;11635;53.636;10.120;2022-08-05T04:59:37;4.63;;;3.60;;
10381;SDS011;11635;53.636;10.120;2022-08-05T05:02:03;9.88;;;4.10;;
10381;SDS011;11635;53.636;10.120;2022-08-05T05:04:29;4.88;;;3.75;;
10381;SDS011;11635;53.636;10.120;2022-08-05T05:06:56;4.82;;;3.50;;
10381;SDS011;11635;53.636;10.120;2022-08-05T05:09:22;4.85;;;3.78;;
10381;SDS011;11635;53.636;10.120;2022-08-05T05:11:50;4.30;;;3.58;;
10381;SDS011;11635;53.636;10.120;2022-08-05T05:14:16;4.93;;;4.03;;
10381;SDS011;11635;53.636;10.120;2022-08-05T05:16:43;6.28;;;4.03;;
10381;SDS011;11635;53.636;10.120;2022-08-05T05:19:09;6.20;;;4.10;;
10381;SDS011;11635;53.636;10.120;2022-08-05T05:21:35;4.95;;;3.92;;
10381;SDS011;11635;53.636;10.120;2022-08-05T05:24:02;6.00;;;3.92;;
10381;SDS011;11635;53.636;10.120;2022-08-05T05:26:28;7.82;;;4.35;;
10381;SDS011;11635;53.636;10.120;2022-08-05T05:28:56;6.20;;;4.13;;
10381;SDS011;11635;53.636;10.120;2022-08-05T05:31:23;6.45;;;4.32;;
10381;SDS011;11635;53.636;10.120;2022-08-05T05:33:49;5.15;;;4.00;;
10381;SDS011;11635;53.636;10.120;2022-08-05T05:36:15;4.63;;;4.00;;
10381;SDS011;11635;53.636;10.120;2022-08-05T05:38:42;7.40;;;4.22;;
10381;SDS011;11635;53.636;10.120;2022-08-05T05:41:08;7.10;;;4.15;;
10381;SDS011;11635;53.636;10.120;2022-08-05T05:43:35;5.50;;;4.20;;
10381;SDS011;11635;53.636;10.120;2022-08-05T05:46:02;5.85;;;4.68;;
10381;SDS011;11635;53.636;10.120;2022-08-05T05:48:29;5.18;;;4.13;;
10381;SDS011;11635;53.636;10.120;2022-08-05T05:50:55;6.00;;;4.30;;
10381;SDS011;11635;53.636;10.120;2022-08-05T05:53:21;7.05;;;4.63;;
10381;SDS011;11635;53.636;10.120;2022-08-05T05:55:48;5.93;;;4.47;;
10381;SDS011;11635;53.636;10.120;2022-08-05T05:58:14;4.95;;;4.22;;
10381;SDS011;11635;53.636;10.120;2022-08-05T06:00:40;6.75;;;4.18;;
10381;SDS011;11635;53.636;10.120;2022-08-05T06:03:08;4.88;;;4.15;;
10381;SDS011;11635;53.636;10.120;2022-08-05T06:05:34;5.72;;;4.63;;
10381;SDS011;11635;53.636;10.120;2022-08-05T06:08:01;5.22;;;4.25;;
10381;SDS011;11635;53.636;10.120;2022-08-05T06:10:27;5.28;;;4.20;;
10381;SDS011;11635;53.636;10.120;2022-08-05T06:12:54;8.43;;;4.70;;
10381;SDS011;11635;53.636;10.120;2022-08-05T06:15:20;9.90;;;5.30;;
10381;SDS011;11635;53.636;10.120;2022-08-05T06:17:46;6.43;;;4.03;;
10381;SDS011;11635;53.636;10.120;2022-08-05T06:20:14;5.88;;;4.78;;
10381;SDS011;11635;53.636;10.120;2022-08-05T06:22:40;5.00;;;3.72;;
10381;SDS011;11635;53.636;10.120;2022-08-05T06:25:07;4.82;;;3.67;;
10381;SDS011;11635;53.636;10.120;2022-08-05T06:27:34;8.13;;;4.68;;
10381;SDS011;11635;53.636;10.120;2022-08-05T06:30:01;5.53;;;4.22;;
10381;SDS011;11635;53.636;10.120;2022-08-05T06:32:27;6.28;;;4.30;;
10381;SDS011;11635;53.636;10.120;2022-08-05T06:34:54;4.68;;;4.20;;
10381;SDS011;11635;53.636;10.120;2022-08-05T06:37:22;5.10;;;4.65;;
10381;SDS011;11635;53.636;10.120;2022-08-05T06:39:49;4.35;;;3.90;;
10381;SDS011;11635;53.636;10.120;2022-08-05T06:42:15;4.35;;;3.95;;
10381;SDS011;11635;53.636;10.120;2022-08-05T06:44:41;6.40;;;4.40;;
10381;SDS011;11635;53.636;10.120;2022-08-05T06:47:08;6.80;;;4.50;;
10381;SDS011;11635;53.636;10.120;2022-08-05T06:49:35;5.70;;;4.50;;
10381;SDS011;11635;53.636;10.120;2022-08-05T06:52:01;5.95;;;4.18;;
10381;SDS011;11635;53.636;10.120;2022-08-05T06:54:29;5.70;;;3.88;;
10381;SDS011;11635;53.636;10.120;2022-08-05T06:56:55;5.55;;;4.00;;
10381;SDS011;11635;53.636;10.120;2022-08-05T06:59:22;7.93;;;4.32;;
10381;SDS011;11635;53.636;10.120;2022-08-05T07:01:48;4.70;;;4.25;;
10381;SDS011;11635;53.636;10.120;2022-08-05T07:04:14;6.82;;;4.45;;
10381;SDS011;11635;53.636;10.120;2022-08-05T07:06:41;4.93;;;3.95;;
10381;SDS011;11635;53.636;10.120;2022-08-05T07:09:07;5.28;;;3.85;;
10381;SDS011;11635;53.636;10.120;2022-08-05T07:11:35;5.35;;;4.30;;
10381;SDS011;11635;53.636;10.120;2022-08-05T07:14:01;6.75;;;4.00;;
10381;SDS011;11635;53.636;10.120;2022-08-05T07:16:45;7.68;;;3.63;;
10381;SDS011;11635;53.636;10.120;2022-08-05T07:19:14;7.85;;;3.85;;
10381;SDS011;11635;53.636;10.120;2022-08-05T07:21:41;4.18;;;3.42;;
10381;SDS011;11635;53.636;10.120;2022-08-05T07:24:08;5.38;;;3.63;;
10381;SDS011;11635;53.636;10.120;2022-08-05T07:26:35;6.55;;;4.20;;
10381;SDS011;11635;53.636;10.120;2022-08-05T07:29:02;4.20;;;3.80;;
10381;SDS011;11635;53.636;10.120;2022-08-05T07:31:28;9.00;;;4.00;;
10381;SDS011;11635;53.636;10.120;2022-08-05T07:33:55;6.15;;;3.72;;
10381;SDS011;11635;53.636;10.120;2022-08-05T07:36:21;5.35;;;3.75;;
10381;SDS011;11635;53.636;10.120;2022-08-05T07:38:48;6.07;;;4.07;;
10381;SDS011;11635;53.636;10.120;2022-08-05T07:41:15;4.75;;;3.85;;
10381;SDS011;11635;53.636;10.120;2022-08-05T07:43:44;5.80;;;3.97;;
10381;SDS011;11635;53.636;10.120;2022-08-05T07:46:10;4.85;;;3.50;;
10381;SDS011;11635;53.636;10.120;2022-08-05T07:48:37;8.25;;;3.80;;
10381;SDS011;11635;53.636;10.120;2022-08-05T07:51:03;4.95;;;4.10;;
10381;SDS011;11635;53.636;10.120;2022-08-05T07:53:30;5.97;;;4.25;;
10381;SDS011;11635;53.636;10.120;2022-08-05T07:55:56;4.65;;;3.80;;
10381;SDS011;11635;53.636;10.120;2022-08-05T07:58:22;5.82;;;4.05;;
10381;SDS011;11635;53.636;10.120;2022-08-05T08:00:50;5.60;;;3.80;;
10381;SDS011;11635;53.636;10.120;2022-08-05T08:03:16;6.05;;;4.07;;
10381;SDS011;11635;53.636;10.120;2022-08-05T08:05:43;5.30;;;4.05;;
10381;SDS011;11635;53.636;10.120;2022-08-05T08:08:09;7.35;;;4.13;;
10381;SDS011;11635;53.636;10.120;2022-08-05T08:10:36;7.25;;;3.97;;
10381;SDS011;11635;53.636;10.120;2022-08-05T08:13:02;5.55;;;3.78;;
10381;SDS011;11635;53.636;10.120;2022-08-05T08:15:29;6.15;;;3.83;;
10381;SDS011;11635;53.636;10.120;2022-08-05T08:17:57;4.32;;;3.75;;
10381;SDS011;11635;53.636;10.120;2022-08-05T08:20:24;4.97;;;4.53;;
10381;SDS011;11635;53.636;10.120;2022-08-05T08:22:50;5.43;;;4.60;;
10381;SDS011;11635;53.636;10.120;2022-08-05T08:25:17;7.03;;;4.28;;
10381;SDS011;11635;53.636;10.120;2022-08-05T08:27:43;5.18;;;4.30;;
10381;SDS011;11635;53.636;10.120;2022-08-05T08:30:10;4.93;;;4.20;;
10381;SDS011;11635;53.636;10.120;2022-08-05T08:32:37;4.82;;;4.43;;
10381;SDS011;11635;53.636;10.120;2022-08-05T08:35:05;4.90;;;4.47;;
10381;SDS011;11635;53.636;10.120;2022-08-05T08:37:32;7.38;;;4.30;;
10381;SDS011;11635;53.636;10.120;2022-08-05T08:39:58;6.03;;;4.80;;
10381;SDS011;11635;53.636;10.120;2022-08-05T08:42:25;5.90;;;4.82;;
10381;SDS011;11635;53.636;10.120;2022-08-05T08:44:52;5.93;;;4.53;;
10381;SDS011;11635;53.636;10.120;2022-08-05T08:47:20;5.05;;;4.35;;
10381;SDS011;11635;53.636;10.120;2022-08-05T08:49:48;4.82;;;4.25;;
10381;SDS011;11635;53.636;10.120;2022-08-05T08:52:18;5.13;;;4.38;;
10381;SDS011;11635;53.636;10.120;2022-08-05T08:54:46;5.03;;;4.28;;
10381;SDS011;11635;53.636;10.120;2022-08-05T08:57:12;5.60;;;4.20;;
10381;SDS011;11635;53.636;10.120;2022-08-05T08:59:39;4.95;;;4.03;;
10381;SDS011;11635;53.636;10.120;2022-08-05T09:02:06;4.82;;;4.13;;
10381;SDS011;11635;53.636;10.120;2022-08-05T09:04:33;5.40;;;4.40;;
10381;SDS011;11635;53.636;10.120;2022-08-05T09:07:01;4.30;;;3.92;;
10381;SDS011;11635;53.636;10.120;2022-08-05T09:09:30;4.18;;;3.78;;
10381;SDS011;11635;53.636;10.120;2022-08-05T09:11:56;5.65;;;4.78;;
10381;SDS011;11635;53.636;10.120;2022-08-05T09:14:23;6.40;;;4.10;;
10381;SDS011;11635;53.636;10.120;2022-08-05T09:16:50;6.22;;;3.63;;
10381;SDS011;11635;53.636;10.120;2022-08-05T09:19:16;5.63;;;4.00;;
10381;SDS011;11635;53.636;10.120;2022-08-05T09:21:43;4.53;;;4.13;;
10381;SDS011;11635;53.636;10.120;2022-08-05T09:24:09;5.80;;;3.72;;
10381;SDS011;11635;53.636;10.120;2022-08-05T09:26:38;4.80;;;4.00;;
10381;SDS011;11635;53.636;10.120;2022-08-05T09:29:05;5.53;;;4.22;;
10381;SDS011;11635;53.636;10.120;2022-08-05T09:31:32;4.00;;;3.67;;
10381;SDS011;11635;53.636;10.120;2022-08-05T09:33:59;4.93;;;3.70;;
10381;SDS011;11635;53.636;10.120;2022-08-05T09:36:36;4.88;;;3.33;;
10381;SDS011;11635;53.636;10.120;2022-08-05T09:39:04;4.03;;;3.35;;
10381;SDS011;11635;53.636;10.120;2022-08-05T09:41:31;4.15;;;2.92;;
10381;SDS011;11635;53.636;10.120;2022-08-05T09:43:58;5.40;;;3.40;;
10381;SDS011;11635;53.636;10.120;2022-08-05T09:46:25;4.00;;;3.53;;
10381;SDS011;11635;53.636;10.120;2022-08-05T09:48:52;7.13;;;3.22;;
10381;SDS011;11635;53.636;10.120;2022-08-05T09:51:29;3.03;;;2.80;;
10381;SDS011;11635;53.636;10.120;2022-08-05T09:53:55;5.00;;;2.90;;
10381;SDS011;11635;53.636;10.120;2022-08-05T09:56:25;4.45;;;2.88;;
10381;SDS011;11635;53.636;10.120;2022-08-05T09:58:55;4.53;;;2.85;;
10381;SDS011;11635;53.636;10.120;2022-08-05T10:01:23;3.55;;;3.08;;
10381;SDS011;11635;53.636;10.120;2022-08-05T10:03:53;3.80;;;2.60;;
10381;SDS011;11635;53.636;10.120;2022-08-05T10:06:20;2.95;;;2.50;;
10381;SDS011;11635;53.636;10.120;2022-08-05T10:08:46;3.67;;;2.58;;
10381;SDS011;11635;53.636;10.120;2022-08-05T10:11:13;3.03;;;2.55;;
10381;SDS011;11635;53.636;10.120;2022-08-05T10:13:40;3.03;;;2.55;;
10381;SDS011;11635;53.636;10.120;2022-08-05T10:16:07;5.03;;;2.60;;
10381;SDS011;11635;53.636;10.120;2022-08-05T10:18:53;2.95;;;2.60;;
10381;SDS011;11635;53.636;10.120;2022-08-05T10:21:20;6.47;;;2.65;;
10381;SDS011;11635;53.636;10.120;2022-08-05T10:23:46;4.68;;;2.67;;
10381;SDS011;11635;53.636;10.120;2022-08-05T10:26:13;2.72;;;2.42;;
10381;SDS011;11635;53.636;10.120;2022-08-05T10:28:39;4.43;;;2.90;;
10381;SDS011;11635;53.636;10.120;2022-08-05T10:31:06;3.65;;;2.03;;
10381;SDS011;11635;53.636;10.120;2022-08-05T10:33:33;3.90;;;2.60;;
10381;SDS011;11635;53.636;10.120;2022-08-05T10:36:02;2.78;;;2.00;;
10381;SDS011;11635;53.636;10.120;2022-08-05T10:38:29;2.38;;;2.15;;
10381;SDS011;11635;53.636;10.120;2022-08-05T10:40:57;5.28;;;2.90;;
10381;SDS011;11635;53.636;10.120;2022-08-05T10:43:32;4.78;;;2.50;;
10381;SDS011;11635;53.636;10.120;2022-08-05T10:46:02;4.55;;;2.33;;
10381;SDS011;11635;53.636;10.120;2022-08-05T10:48:33;2.97;;;2.47;;
10381;SDS011;11635;53.636;10.120;2022-08-05T10:51:02;3.45;;;2.20;;
10381;SDS011;11635;53.636;10.120;2022-08-05T10:53:36;3.10;;;2.60;;
10381;SDS011;11635;53.636;10.120;2022-08-05T10:56:04;3.92;;;2.25;;
10381;SDS011;11635;53.636;10.120;2022-08-05T10:58:31;4.05;;;2.60;;
10381;SDS011;11635;53.636;10.120;2022-08-05T11:00:58;2.95;;;2.25;;
10381;SDS011;11635;53.636;10.120;2022-08-05T11:03:24;3.03;;;2.70;;
10381;SDS011;11635;53.636;10.120;2022-08-05T11:06:06;3.15;;;2.72;;
10381;SDS011;11635;53.636;10.120;2022-08-05T11:08:32;6.35;;;2.85;;
10381;SDS011;11635;53.636;10.120;2022-08-05T11:13:40;4.40;;;3.20;;
10381;SDS011;11635;53.636;10.120;2022-08-05T11:16:20;3.65;;;3.00;;
10381;SDS011;11635;53.636;10.120;2022-08-05T11:18:47;4.95;;;2.88;;
10381;SDS011;11635;53.636;10.120;2022-08-05T11:23:56;4.72;;;2.90;;
10381;SDS011;11635;53.636;10.120;2022-08-05T11:26:23;3.92;;;2.65;;
10381;SDS011;11635;53.636;10.120;2022-08-05T11:28:50;3.80;;;2.42;;
10381;SDS011;11635;53.636;10.120;2022-08-05T11:34:03;3.30;;;2.40;;
10381;SDS011;11635;53.636;10.120;2022-08-05T11:36:40;4.63;;;2.33;;
10381;SDS011;11635;53.636;10.120;2022-08-05T11:39:09;3.45;;;2.40;;
10381;SDS011;11635;53.636;10.120;2022-08-05T11:41:37;3.15;;;2.30;;
10381;SDS011;11635;53.636;10.120;2022-08-05T11:44:05;6.38;;;2.60;;
10381;SDS011;11635;53.636;10.120;2022-08-05T11:46:35;5.57;;;2.60;;
10381;SDS011;11635;53.636;10.120;2022-08-05T11:49:02;5.05;;;2.90;;
10381;SDS011;11635;53.636;10.120;2022-08-05T11:51:29;4.35;;;2.85;;
10381;SDS011;11635;53.636;10.120;2022-08-05T11:53:56;4.03;;;2.72;;
10381;SDS011;11635;53.636;10.120;2022-08-05T11:56:26;3.38;;;2.63;;
10381;SDS011;11635;53.636;10.120;2022-08-05T11:59:07;4.05;;;2.50;;
10381;SDS011;11635;53.636;10.120;2022-08-05T12:01:37;5.18;;;2.70;;
10381;SDS011;11635;53.636;10.120;2022-08-05T12:04:16;5.28;;;2.60;;
10381;SDS011;11635;53.636;10.120;2022-08-05T12:06:43;3.20;;;2.90;;
10381;SDS011;11635;53.636;10.120;2022-08-05T12:09:09;4.55;;;2.75;;
10381;SDS011;11635;53.636;10.120;2022-08-05T12:11:37;4.15;;;2.33;;
10381;SDS011;11635;53.636;10.120;2022-08-05T12:14:04;4.57;;;2.60;;
10381;SDS011;11635;53.636;10.120;2022-08-05T12:16:31;3.53;;;2.35;;
10381;SDS011;11635;53.636;10.120;2022-08-05T12:18:58;2.38;;;2.17;;
10381;SDS011;11635;53.636;10.120;2022-08-05T12:21:26;2.30;;;2.03;;
10381;SDS011;11635;53.636;10.120;2022-08-05T12:23:53;3.38;;;2.35;;
10381;SDS011;11635;53.636;10.120;2022-08-05T12:26:20;4.05;;;2.33;;
10381;SDS011;11635;53.636;10.120;2022-08-05T12:28:47;2.35;;;1.67;;
10381;SDS011;11635;53.636;10.120;2022-08-05T12:31:14;3.00;;;1.60;;
10381;SDS011;11635;53.636;10.120;2022-08-05T12:33:41;2.35;;;1.60;;
10381;SDS011;11635;53.636;10.120;2022-08-05T12:36:08;3.00;;;1.63;;
10381;SDS011;11635;53.636;10.120;2022-08-05T12:38:35;2.42;;;1.50;;
10381;SDS011;11635;53.636;10.120;2022-08-05T12:41:02;2.28;;;1.33;;
10381;SDS011;11635;53.636;10.120;2022-08-05T12:43:28;2.38;;;1.60;;
10381;SDS011;11635;53.636;10.120;2022-08-05T12:45:56;2.25;;;1.45;;
10381;SDS011;11635;53.636;10.120;2022-08-05T12:48:22;1.88;;;1.48;;
10381;SDS011;11635;53.636;10.120;2022-08-05T12:53:33;3.22;;;1.50;;
10381;SDS011;11635;53.636;10.120;2022-08-05T12:56:14;4.53;;;1.92;;
10381;SDS011;11635;53.636;10.120;2022-08-05T12:58:40;3.42;;;1.50;;
10381;SDS011;11635;53.636;10.120;2022-08-05T13:01:08;2.95;;;1.80;;
10381;SDS011;11635;53.636;10.120;2022-08-05T13:03:35;3.50;;;1.60;;
10381;SDS011;11635;53.636;10.120;2022-08-05T13:06:05;2.45;;;1.58;;
10381;SDS011;11635;53.636;10.120;2022-08-05T13:08:31;2.17;;;1.40;;
10381;SDS011;11635;53.636;10.120;2022-08-05T13:10:58;1.95;;;1.50;;
10381;SDS011;11635;53.636;10.120;2022-08-05T13:13:25;2.35;;;1.35;;
10381;SDS011;11635;53.636;10.120;2022-08-05T13:15:52;2.50;;;1.52;;
10381;SDS011;11635;53.636;10.120;2022-08-05T13:18:20;3.75;;;1.73;;
10381;SDS011;11635;53.636;10.120;2022-08-05T13:20:47;2.13;;;1.23;;
10381;SDS011;11635;53.636;10.120;2022-08-05T13:23:14;2.08;;;1.23;;
10381;SDS011;11635;53.636;10.120;2022-08-05T13:25:40;2.72;;;1.48;;
10381;SDS011;11635;53.636;10.120;2022-08-05T13:28:06;1.65;;;1.40;;
10381;SDS011;11635;53.636;10.120;2022-08-05T13:30:33;2.22;;;1.23;;
10381;SDS011;11635;53.636;10.120;2022-08-05T13:33:00;1.45;;;1.00;;
10381;SDS011;11635;53.636;10.120;2022-08-05T13:35:28;1.92;;;1.30;;
10381;SDS011;11635;53.636;10.120;2022-08-05T13:37:54;1.40;;;1.15;;
10381;SDS011;11635;53.636;10.120;2022-08-05T13:40:21;2.20;;;1.20;;
